sensor_id;sensor_type;location;lat;lon;timestamp;temperature;humidity
31967;DHT22;18496;52.042;6.812;2022-10-16T00:00:53;15.30;99.90
31967;DHT22;18496;52.042;6.812;2022-10-16T00:02:57;15.20;99.90
31967;DHT22;18496;52.042;6.812;2022-10-16T00:05:01;15.30;99.90
31967;DHT22;18496;52.042;6.812;2022-10-16T00:07:04;15.20;99.90
31967;DHT22;18496;52.042;6.812;2022-10-16T00:09:08;15.20;99.90
31967;DHT22;18496;52.042;6.812;2022-10-16T00:11:22;15.20;99.90
31967;DHT22;18496;52.042;6.812;2022-10-16T00:13:26;15.20;99.90
31967;DHT22;18496;52.042;6.812;2022-10-16T00:15:29;15.20;99.90
31967;DHT22;18496;52.042;6.812;2022-10-16T00:17:33;15.20;99.90
31967;DHT22;18496;52.042;6.812;2022-10-16T00:19:37;15.20;99.90
31967;DHT22;18496;52.042;6.812;2022-10-16T00:21:40;15.20;99.90
31967;DHT22;18496;52.042;6.812;2022-10-16T00:23:44;15.20;99.90
31967;DHT22;18496;52.042;6.812;2022-10-16T00:25:58;15.20;99.90
31967;DHT22;18496;52.042;6.812;2022-10-16T00:28:02;15.20;99.90
31967;DHT22;18496;52.042;6.812;2022-10-16T00:30:06;15.10;99.90
31967;DHT22;18496;52.042;6.812;2022-10-16T00:32:11;15.10;99.90
31967;DHT22;18496;52.042;6.812;2022-10-16T00:34:15;15.10;99.90
31967;DHT22;18496;52.042;6.812;2022-10-16T00:36:19;15.10;99.90
31967;DHT22;18496;52.042;6.812;2022-10-16T00:38:23;15.10;99.90
31967;DHT22;18496;52.042;6.812;2022-10-16T00:40:27;15.10;99.90
31967;DHT22;18496;52.042;6.812;2022-10-16T00:42:31;15.10;99.90
31967;DHT22;18496;52.042;6.812;2022-10-16T00:44:43;15.10;99.90
31967;DHT22;18496;52.042;6.812;2022-10-16T00:46:46;15.10;99.90
31967;DHT22;18496;52.042;6.812;2022-10-16T00:49:04;15.10;99.90
31967;DHT22;18496;52.042;6.812;2022-10-16T00:51:08;15.10;99.90
31967;DHT22;18496;52.042;6.812;2022-10-16T00:53:12;15.10;99.90
31967;DHT22;18496;52.042;6.812;2022-10-16T00:55:15;15.00;99.90
31967;DHT22;18496;52.042;6.812;2022-10-16T00:57:19;15.00;99.90
31967;DHT22;18496;52.042;6.812;2022-10-16T00:59:27;15.00;99.90
31967;DHT22;18496;52.042;6.812;2022-10-16T01:01:31;15.10;99.90
31967;DHT22;18496;52.042;6.812;2022-10-16T01:03:35;15.10;99.90
31967;DHT22;18496;52.042;6.812;2022-10-16T01:05:49;15.00;99.90
31967;DHT22;18496;52.042;6.812;2022-10-16T01:07:59;15.00;99.90
31967;DHT22;18496;52.042;6.812;2022-10-16T01:10:12;15.00;99.90
31967;DHT22;18496;52.042;6.812;2022-10-16T01:12:23;14.90;99.90
31967;DHT22;18496;52.042;6.812;2022-10-16T01:16:34;14.90;99.90
31967;DHT22;18496;52.042;6.812;2022-10-16T01:24:59;14.90;99.90
31967;DHT22;18496;52.042;6.812;2022-10-16T01:27:09;14.90;99.90
31967;DHT22;18496;52.042;6.812;2022-10-16T01:29:34;14.90;99.90
31967;DHT22;18496;52.042;6.812;2022-10-16T01:31:40;14.90;99.90
31967;DHT22;18496;52.042;6.812;2022-10-16T01:33:47;14.90;99.90
31967;DHT22;18496;52.042;6.812;2022-10-16T01:35:52;14.90;99.90
31967;DHT22;18496;52.042;6.812;2022-10-16T01:38:04;14.80;99.90
31967;DHT22;18496;52.042;6.812;2022-10-16T01:40:11;14.80;99.90
31967;DHT22;18496;52.042;6.812;2022-10-16T01:42:20;14.80;99.90
31967;DHT22;18496;52.042;6.812;2022-10-16T01:44:26;14.80;99.90
31967;DHT22;18496;52.042;6.812;2022-10-16T01:46:31;14.80;99.90
31967;DHT22;18496;52.042;6.812;2022-10-16T01:48:36;14.80;99.90
31967;DHT22;18496;52.042;6.812;2022-10-16T01:50:40;14.80;99.90
31967;DHT22;18496;52.042;6.812;2022-10-16T01:52:45;14.80;99.90
31967;DHT22;18496;52.042;6.812;2022-10-16T01:54:50;14.90;99.90
31967;DHT22;18496;52.042;6.812;2022-10-16T01:56:55;14.90;99.90
31967;DHT22;18496;52.042;6.812;2022-10-16T01:59:01;14.90;99.90
31967;DHT22;18496;52.042;6.812;2022-10-16T02:01:06;14.90;99.90
31967;DHT22;18496;52.042;6.812;2022-10-16T02:03:11;14.90;99.90
31967;DHT22;18496;52.042;6.812;2022-10-16T02:05:19;14.80;99.90
31967;DHT22;18496;52.042;6.812;2022-10-16T02:07:23;14.90;99.90
31967;DHT22;18496;52.042;6.812;2022-10-16T02:09:27;14.90;99.90
31967;DHT22;18496;52.042;6.812;2022-10-16T02:11:33;14.90;99.90
31967;DHT22;18496;52.042;6.812;2022-10-16T02:13:53;14.80;99.90
31967;DHT22;18496;52.042;6.812;2022-10-16T02:15:58;14.80;99.90
31967;DHT22;18496;52.042;6.812;2022-10-16T02:18:02;14.80;99.90
31967;DHT22;18496;52.042;6.812;2022-10-16T02:20:07;14.80;99.90
31967;DHT22;18496;52.042;6.812;2022-10-16T02:22:15;14.80;99.90
31967;DHT22;18496;52.042;6.812;2022-10-16T02:26:35;14.80;99.90
31967;DHT22;18496;52.042;6.812;2022-10-16T02:28:42;14.70;99.90
31967;DHT22;18496;52.042;6.812;2022-10-16T02:30:52;14.80;99.90
31967;DHT22;18496;52.042;6.812;2022-10-16T02:32:58;14.80;99.90
31967;DHT22;18496;52.042;6.812;2022-10-16T02:35:03;14.80;99.90
31967;DHT22;18496;52.042;6.812;2022-10-16T02:37:07;14.80;99.90
31967;DHT22;18496;52.042;6.812;2022-10-16T02:39:11;14.80;99.90
31967;DHT22;18496;52.042;6.812;2022-10-16T02:41:15;14.80;99.90
31967;DHT22;18496;52.042;6.812;2022-10-16T02:43:18;14.80;99.90
31967;DHT22;18496;52.042;6.812;2022-10-16T02:45:22;14.80;99.90
31967;DHT22;18496;52.042;6.812;2022-10-16T02:47:26;14.80;99.90
31967;DHT22;18496;52.042;6.812;2022-10-16T02:49:30;14.80;99.90
31967;DHT22;18496;52.042;6.812;2022-10-16T02:51:33;14.70;99.90
31967;DHT22;18496;52.042;6.812;2022-10-16T02:53:37;14.80;99.90
31967;DHT22;18496;52.042;6.812;2022-10-16T02:55:41;14.80;99.90
31967;DHT22;18496;52.042;6.812;2022-10-16T02:57:45;14.80;99.90
31967;DHT22;18496;52.042;6.812;2022-10-16T02:59:49;14.80;99.90
31967;DHT22;18496;52.042;6.812;2022-10-16T03:01:52;14.80;99.90
31967;DHT22;18496;52.042;6.812;2022-10-16T03:03:56;14.80;99.90
31967;DHT22;18496;52.042;6.812;2022-10-16T03:05:59;14.80;99.90
31967;DHT22;18496;52.042;6.812;2022-10-16T03:08:03;14.80;99.90
31967;DHT22;18496;52.042;6.812;2022-10-16T03:10:07;14.70;99.90
31967;DHT22;18496;52.042;6.812;2022-10-16T03:12:11;14.80;99.90
31967;DHT22;18496;52.042;6.812;2022-10-16T03:14:15;14.70;99.90
31967;DHT22;18496;52.042;6.812;2022-10-16T03:16:20;14.70;99.90
31967;DHT22;18496;52.042;6.812;2022-10-16T03:18:23;14.80;99.90
31967;DHT22;18496;52.042;6.812;2022-10-16T03:20:27;14.70;99.90
31967;DHT22;18496;52.042;6.812;2022-10-16T03:22:31;14.80;99.90
31967;DHT22;18496;52.042;6.812;2022-10-16T03:24:34;14.70;99.90
31967;DHT22;18496;52.042;6.812;2022-10-16T03:26:38;14.80;99.90
31967;DHT22;18496;52.042;6.812;2022-10-16T03:28:41;14.80;99.90
31967;DHT22;18496;52.042;6.812;2022-10-16T03:30:45;14.70;99.90
31967;DHT22;18496;52.042;6.812;2022-10-16T03:32:48;14.80;99.90
31967;DHT22;18496;52.042;6.812;2022-10-16T03:34:57;14.70;99.90
31967;DHT22;18496;52.042;6.812;2022-10-16T03:37:00;14.80;99.90
31967;DHT22;18496;52.042;6.812;2022-10-16T03:39:04;14.80;99.90
31967;DHT22;18496;52.042;6.812;2022-10-16T03:41:07;14.80;99.90
31967;DHT22;18496;52.042;6.812;2022-10-16T03:43:11;14.70;99.90
31967;DHT22;18496;52.042;6.812;2022-10-16T03:45:14;14.80;99.90
31967;DHT22;18496;52.042;6.812;2022-10-16T03:47:18;14.80;99.90
31967;DHT22;18496;52.042;6.812;2022-10-16T03:49:24;14.70;99.90
31967;DHT22;18496;52.042;6.812;2022-10-16T03:51:28;14.70;99.90
31967;DHT22;18496;52.042;6.812;2022-10-16T03:53:31;14.70;99.90
31967;DHT22;18496;52.042;6.812;2022-10-16T03:55:35;14.70;99.90
31967;DHT22;18496;52.042;6.812;2022-10-16T03:57:39;14.80;99.90
31967;DHT22;18496;52.042;6.812;2022-10-16T03:59:42;14.80;99.90
31967;DHT22;18496;52.042;6.812;2022-10-16T04:01:46;14.80;99.90
31967;DHT22;18496;52.042;6.812;2022-10-16T04:03:50;14.80;99.90
31967;DHT22;18496;52.042;6.812;2022-10-16T04:05:53;14.80;99.90
31967;DHT22;18496;52.042;6.812;2022-10-16T04:07:57;14.80;99.90
31967;DHT22;18496;52.042;6.812;2022-10-16T04:10:00;14.80;99.90
31967;DHT22;18496;52.042;6.812;2022-10-16T04:12:04;14.80;99.90
31967;DHT22;18496;52.042;6.812;2022-10-16T04:14:07;14.90;99.90
31967;DHT22;18496;52.042;6.812;2022-10-16T04:16:11;14.80;99.90
31967;DHT22;18496;52.042;6.812;2022-10-16T04:18:14;14.80;99.90
31967;DHT22;18496;52.042;6.812;2022-10-16T04:20:18;14.80;99.90
31967;DHT22;18496;52.042;6.812;2022-10-16T04:22:22;14.80;99.90
31967;DHT22;18496;52.042;6.812;2022-10-16T04:24:25;14.80;99.90
31967;DHT22;18496;52.042;6.812;2022-10-16T04:26:29;14.70;99.90
31967;DHT22;18496;52.042;6.812;2022-10-16T04:28:32;14.70;99.90
31967;DHT22;18496;52.042;6.812;2022-10-16T04:30:37;14.70;99.90
31967;DHT22;18496;52.042;6.812;2022-10-16T04:32:41;14.70;99.90
31967;DHT22;18496;52.042;6.812;2022-10-16T04:34:44;14.70;99.90
31967;DHT22;18496;52.042;6.812;2022-10-16T04:36:48;14.70;99.90
31967;DHT22;18496;52.042;6.812;2022-10-16T04:38:54;14.80;99.90
31967;DHT22;18496;52.042;6.812;2022-10-16T04:40:57;14.70;99.90
31967;DHT22;18496;52.042;6.812;2022-10-16T04:43:04;14.80;99.90
31967;DHT22;18496;52.042;6.812;2022-10-16T04:45:09;14.80;99.90
31967;DHT22;18496;52.042;6.812;2022-10-16T04:47:13;14.70;99.90
31967;DHT22;18496;52.042;6.812;2022-10-16T04:49:16;14.70;99.90
31967;DHT22;18496;52.042;6.812;2022-10-16T04:51:20;14.70;99.90
31967;DHT22;18496;52.042;6.812;2022-10-16T04:53:23;14.70;99.90
31967;DHT22;18496;52.042;6.812;2022-10-16T04:55:27;14.70;99.90
31967;DHT22;18496;52.042;6.812;2022-10-16T04:57:31;14.60;99.90
31967;DHT22;18496;52.042;6.812;2022-10-16T04:59:34;14.70;99.90
31967;DHT22;18496;52.042;6.812;2022-10-16T05:01:38;14.60;99.90
31967;DHT22;18496;52.042;6.812;2022-10-16T05:03:41;14.60;99.90
31967;DHT22;18496;52.042;6.812;2022-10-16T05:05:45;14.60;99.90
31967;DHT22;18496;52.042;6.812;2022-10-16T05:07:49;14.60;99.90
31967;DHT22;18496;52.042;6.812;2022-10-16T05:09:53;14.60;99.90
31967;DHT22;18496;52.042;6.812;2022-10-16T05:11:56;14.60;99.90
31967;DHT22;18496;52.042;6.812;2022-10-16T05:14:00;14.60;99.90
31967;DHT22;18496;52.042;6.812;2022-10-16T05:16:04;14.60;99.90
31967;DHT22;18496;52.042;6.812;2022-10-16T05:18:08;14.60;99.90
31967;DHT22;18496;52.042;6.812;2022-10-16T05:20:12;14.60;99.90
31967;DHT22;18496;52.042;6.812;2022-10-16T05:22:15;14.60;99.90
31967;DHT22;18496;52.042;6.812;2022-10-16T05:24:19;14.60;99.90
31967;DHT22;18496;52.042;6.812;2022-10-16T05:26:22;14.60;99.90
31967;DHT22;18496;52.042;6.812;2022-10-16T05:28:26;14.60;99.90
31967;DHT22;18496;52.042;6.812;2022-10-16T05:30:30;14.60;99.90
31967;DHT22;18496;52.042;6.812;2022-10-16T05:32:34;14.50;99.90
31967;DHT22;18496;52.042;6.812;2022-10-16T05:34:37;14.50;99.90
31967;DHT22;18496;52.042;6.812;2022-10-16T05:36:41;14.50;99.90
31967;DHT22;18496;52.042;6.812;2022-10-16T05:38:44;14.50;99.90
31967;DHT22;18496;52.042;6.812;2022-10-16T05:40:51;14.50;99.90
31967;DHT22;18496;52.042;6.812;2022-10-16T05:42:56;14.50;99.90
31967;DHT22;18496;52.042;6.812;2022-10-16T05:44:59;14.50;99.90
31967;DHT22;18496;52.042;6.812;2022-10-16T05:47:03;14.60;99.90
31967;DHT22;18496;52.042;6.812;2022-10-16T05:49:07;14.50;99.90
31967;DHT22;18496;52.042;6.812;2022-10-16T05:51:11;14.60;99.90
31967;DHT22;18496;52.042;6.812;2022-10-16T05:53:15;14.60;99.90
31967;DHT22;18496;52.042;6.812;2022-10-16T05:55:18;14.60;99.90
31967;DHT22;18496;52.042;6.812;2022-10-16T05:57:22;14.60;99.90
31967;DHT22;18496;52.042;6.812;2022-10-16T05:59:25;14.50;99.90
31967;DHT22;18496;52.042;6.812;2022-10-16T06:01:29;14.50;99.90
31967;DHT22;18496;52.042;6.812;2022-10-16T06:03:34;14.50;99.90
31967;DHT22;18496;52.042;6.812;2022-10-16T06:05:37;14.50;99.90
31967;DHT22;18496;52.042;6.812;2022-10-16T06:07:41;14.50;99.90
31967;DHT22;18496;52.042;6.812;2022-10-16T06:09:47;14.50;99.90
31967;DHT22;18496;52.042;6.812;2022-10-16T06:11:51;14.50;99.90
31967;DHT22;18496;52.042;6.812;2022-10-16T06:13:55;14.50;99.90
31967;DHT22;18496;52.042;6.812;2022-10-16T06:16:00;14.50;99.90
31967;DHT22;18496;52.042;6.812;2022-10-16T06:18:03;14.50;99.90
31967;DHT22;18496;52.042;6.812;2022-10-16T06:20:07;14.50;99.90
31967;DHT22;18496;52.042;6.812;2022-10-16T06:22:11;14.50;99.90
31967;DHT22;18496;52.042;6.812;2022-10-16T06:24:14;14.50;99.90
31967;DHT22;18496;52.042;6.812;2022-10-16T06:26:19;14.50;99.90
31967;DHT22;18496;52.042;6.812;2022-10-16T06:28:23;14.50;99.90
31967;DHT22;18496;52.042;6.812;2022-10-16T06:30:26;14.50;99.90
31967;DHT22;18496;52.042;6.812;2022-10-16T06:32:30;14.50;99.90
31967;DHT22;18496;52.042;6.812;2022-10-16T06:34:33;14.50;99.90
31967;DHT22;18496;52.042;6.812;2022-10-16T06:36:37;14.50;99.90
31967;DHT22;18496;52.042;6.812;2022-10-16T06:38:41;14.50;99.90
31967;DHT22;18496;52.042;6.812;2022-10-16T06:40:45;14.50;99.90
31967;DHT22;18496;52.042;6.812;2022-10-16T06:42:49;14.50;99.90
31967;DHT22;18496;52.042;6.812;2022-10-16T06:44:52;14.50;99.90
31967;DHT22;18496;52.042;6.812;2022-10-16T06:46:56;14.50;99.90
31967;DHT22;18496;52.042;6.812;2022-10-16T06:49:00;14.50;99.90
31967;DHT22;18496;52.042;6.812;2022-10-16T06:53:07;14.50;99.90
31967;DHT22;18496;52.042;6.812;2022-10-16T06:55:10;14.60;99.90
31967;DHT22;18496;52.042;6.812;2022-10-16T06:57:14;14.50;99.90
31967;DHT22;18496;52.042;6.812;2022-10-16T06:59:18;14.50;99.90
31967;DHT22;18496;52.042;6.812;2022-10-16T07:01:23;14.50;99.90
31967;DHT22;18496;52.042;6.812;2022-10-16T07:03:26;14.50;99.90
31967;DHT22;18496;52.042;6.812;2022-10-16T07:05:30;14.40;99.90
31967;DHT22;18496;52.042;6.812;2022-10-16T07:07:33;14.40;99.90
31967;DHT22;18496;52.042;6.812;2022-10-16T07:09:37;14.40;99.90
31967;DHT22;18496;52.042;6.812;2022-10-16T07:11:41;14.50;99.90
31967;DHT22;18496;52.042;6.812;2022-10-16T07:13:45;14.50;99.90
31967;DHT22;18496;52.042;6.812;2022-10-16T07:15:48;14.50;99.90
31967;DHT22;18496;52.042;6.812;2022-10-16T07:17:52;14.50;99.90
31967;DHT22;18496;52.042;6.812;2022-10-16T07:19:55;14.50;99.90
31967;DHT22;18496;52.042;6.812;2022-10-16T07:21:59;14.50;99.90
31967;DHT22;18496;52.042;6.812;2022-10-16T07:24:04;14.50;99.90
31967;DHT22;18496;52.042;6.812;2022-10-16T07:26:09;14.50;99.90
31967;DHT22;18496;52.042;6.812;2022-10-16T07:28:13;14.60;99.90
31967;DHT22;18496;52.042;6.812;2022-10-16T07:30:16;14.60;99.90
31967;DHT22;18496;52.042;6.812;2022-10-16T07:32:20;14.60;99.90
31967;DHT22;18496;52.042;6.812;2022-10-16T07:34:23;14.60;99.90
31967;DHT22;18496;52.042;6.812;2022-10-16T07:36:27;14.70;99.90
31967;DHT22;18496;52.042;6.812;2022-10-16T07:38:31;14.70;99.90
31967;DHT22;18496;52.042;6.812;2022-10-16T07:40:34;14.70;99.90
31967;DHT22;18496;52.042;6.812;2022-10-16T07:42:38;14.80;99.90
31967;DHT22;18496;52.042;6.812;2022-10-16T07:44:41;14.80;99.90
31967;DHT22;18496;52.042;6.812;2022-10-16T07:46:45;14.80;99.90
31967;DHT22;18496;52.042;6.812;2022-10-16T07:48:49;14.80;99.90
31967;DHT22;18496;52.042;6.812;2022-10-16T07:50:56;14.90;99.90
31967;DHT22;18496;52.042;6.812;2022-10-16T07:53:00;14.90;99.90
31967;DHT22;18496;52.042;6.812;2022-10-16T07:55:03;14.90;99.90
31967;DHT22;18496;52.042;6.812;2022-10-16T07:57:07;14.90;99.90
31967;DHT22;18496;52.042;6.812;2022-10-16T07:59:11;15.00;99.90
31967;DHT22;18496;52.042;6.812;2022-10-16T08:01:15;15.00;99.90
31967;DHT22;18496;52.042;6.812;2022-10-16T08:03:18;15.10;99.90
31967;DHT22;18496;52.042;6.812;2022-10-16T08:05:22;15.10;99.90
31967;DHT22;18496;52.042;6.812;2022-10-16T08:07:26;15.20;99.90
31967;DHT22;18496;52.042;6.812;2022-10-16T08:09:29;15.20;99.90
31967;DHT22;18496;52.042;6.812;2022-10-16T08:11:33;15.20;99.90
31967;DHT22;18496;52.042;6.812;2022-10-16T08:13:37;15.30;99.90
31967;DHT22;18496;52.042;6.812;2022-10-16T08:15:44;15.30;99.90
31967;DHT22;18496;52.042;6.812;2022-10-16T08:18:01;15.40;99.90
31967;DHT22;18496;52.042;6.812;2022-10-16T08:20:05;15.40;99.90
31967;DHT22;18496;52.042;6.812;2022-10-16T08:22:09;15.40;99.90
31967;DHT22;18496;52.042;6.812;2022-10-16T08:24:13;15.50;99.90
31967;DHT22;18496;52.042;6.812;2022-10-16T08:26:16;15.50;99.90
31967;DHT22;18496;52.042;6.812;2022-10-16T08:28:20;15.50;99.90
31967;DHT22;18496;52.042;6.812;2022-10-16T08:30:24;15.50;99.90
31967;DHT22;18496;52.042;6.812;2022-10-16T08:32:27;15.60;99.90
31967;DHT22;18496;52.042;6.812;2022-10-16T08:34:31;15.60;99.90
31967;DHT22;18496;52.042;6.812;2022-10-16T08:36:34;15.70;99.90
31967;DHT22;18496;52.042;6.812;2022-10-16T08:38:38;15.70;99.90
31967;DHT22;18496;52.042;6.812;2022-10-16T08:40:41;15.80;99.90
31967;DHT22;18496;52.042;6.812;2022-10-16T08:45:00;15.80;99.90
31967;DHT22;18496;52.042;6.812;2022-10-16T08:49:11;15.90;99.90
31967;DHT22;18496;52.042;6.812;2022-10-16T08:51:26;15.90;99.90
31967;DHT22;18496;52.042;6.812;2022-10-16T08:53:36;16.00;99.90
31967;DHT22;18496;52.042;6.812;2022-10-16T08:57:45;16.10;99.90
31967;DHT22;18496;52.042;6.812;2022-10-16T08:59:48;16.10;99.90
31967;DHT22;18496;52.042;6.812;2022-10-16T09:01:52;16.10;99.90
31967;DHT22;18496;52.042;6.812;2022-10-16T09:04:04;16.10;99.90
31967;DHT22;18496;52.042;6.812;2022-10-16T09:08:17;16.10;99.90
31967;DHT22;18496;52.042;6.812;2022-10-16T09:10:38;16.20;99.90
31967;DHT22;18496;52.042;6.812;2022-10-16T09:19:36;16.30;99.90
31967;DHT22;18496;52.042;6.812;2022-10-16T09:21:42;16.30;99.90
31967;DHT22;18496;52.042;6.812;2022-10-16T09:23:46;16.30;99.90
31967;DHT22;18496;52.042;6.812;2022-10-16T09:25:50;16.40;99.90
31967;DHT22;18496;52.042;6.812;2022-10-16T09:27:55;16.40;99.90
31967;DHT22;18496;52.042;6.812;2022-10-16T09:29:59;16.50;99.90
31967;DHT22;18496;52.042;6.812;2022-10-16T09:32:10;16.50;99.90
31967;DHT22;18496;52.042;6.812;2022-10-16T09:34:32;16.50;99.90
31967;DHT22;18496;52.042;6.812;2022-10-16T09:36:40;16.50;99.90
31967;DHT22;18496;52.042;6.812;2022-10-16T09:38:44;16.60;99.90
31967;DHT22;18496;52.042;6.812;2022-10-16T09:40:48;16.60;99.90
31967;DHT22;18496;52.042;6.812;2022-10-16T09:42:53;16.80;99.90
31967;DHT22;18496;52.042;6.812;2022-10-16T09:44:59;16.70;99.90
31967;DHT22;18496;52.042;6.812;2022-10-16T09:47:14;16.80;99.90
31967;DHT22;18496;52.042;6.812;2022-10-16T09:49:20;16.80;99.90
31967;DHT22;18496;52.042;6.812;2022-10-16T09:51:31;16.80;99.90
31967;DHT22;18496;52.042;6.812;2022-10-16T09:53:46;16.80;99.90
31967;DHT22;18496;52.042;6.812;2022-10-16T09:55:51;16.80;99.90
31967;DHT22;18496;52.042;6.812;2022-10-16T09:57:55;16.90;99.90
31967;DHT22;18496;52.042;6.812;2022-10-16T10:00:08;16.90;99.90
31967;DHT22;18496;52.042;6.812;2022-10-16T10:02:13;17.00;99.90
31967;DHT22;18496;52.042;6.812;2022-10-16T10:04:21;17.10;99.90
31967;DHT22;18496;52.042;6.812;2022-10-16T10:06:26;17.10;99.90
31967;DHT22;18496;52.042;6.812;2022-10-16T10:08:30;17.10;99.90
31967;DHT22;18496;52.042;6.812;2022-10-16T10:10:36;17.20;99.90
31967;DHT22;18496;52.042;6.812;2022-10-16T10:12:41;17.30;99.90
31967;DHT22;18496;52.042;6.812;2022-10-16T10:14:52;17.30;99.90
31967;DHT22;18496;52.042;6.812;2022-10-16T10:19:09;17.40;99.90
31967;DHT22;18496;52.042;6.812;2022-10-16T10:21:16;17.50;99.90
31967;DHT22;18496;52.042;6.812;2022-10-16T10:23:22;17.50;99.90
31967;DHT22;18496;52.042;6.812;2022-10-16T10:25:42;17.60;99.90
31967;DHT22;18496;52.042;6.812;2022-10-16T10:29:53;17.80;99.90
31967;DHT22;18496;52.042;6.812;2022-10-16T10:34:21;17.70;99.90
31967;DHT22;18496;52.042;6.812;2022-10-16T10:38:46;17.80;99.90
31967;DHT22;18496;52.042;6.812;2022-10-16T10:40:58;17.80;99.90
31967;DHT22;18496;52.042;6.812;2022-10-16T10:43:06;17.90;99.90
31967;DHT22;18496;52.042;6.812;2022-10-16T10:56:49;18.30;99.90
31967;DHT22;18496;52.042;6.812;2022-10-16T11:04:08;18.50;99.90
31967;DHT22;18496;52.042;6.812;2022-10-16T11:06:05;18.50;99.90
31967;DHT22;18496;52.042;6.812;2022-10-16T11:08:17;18.50;99.90
31967;DHT22;18496;52.042;6.812;2022-10-16T11:10:23;18.50;99.90
31967;DHT22;18496;52.042;6.812;2022-10-16T11:12:29;18.60;99.90
31967;DHT22;18496;52.042;6.812;2022-10-16T11:14:35;18.60;99.90
31967;DHT22;18496;52.042;6.812;2022-10-16T11:16:46;18.70;99.90
31967;DHT22;18496;52.042;6.812;2022-10-16T11:21:07;18.80;99.90
31967;DHT22;18496;52.042;6.812;2022-10-16T11:23:16;18.80;99.90
31967;DHT22;18496;52.042;6.812;2022-10-16T11:25:22;18.80;99.90
31967;DHT22;18496;52.042;6.812;2022-10-16T11:27:36;18.80;99.90
31967;DHT22;18496;52.042;6.812;2022-10-16T11:29:44;18.80;99.90
31967;DHT22;18496;52.042;6.812;2022-10-16T11:31:49;18.90;99.90
31967;DHT22;18496;52.042;6.812;2022-10-16T11:33:57;19.00;99.90
31967;DHT22;18496;52.042;6.812;2022-10-16T11:36:08;19.00;99.90
31967;DHT22;18496;52.042;6.812;2022-10-16T11:40:33;19.10;99.90
31967;DHT22;18496;52.042;6.812;2022-10-16T11:42:39;19.20;99.90
31967;DHT22;18496;52.042;6.812;2022-10-16T11:44:58;19.20;99.90
31967;DHT22;18496;52.042;6.812;2022-10-16T11:49:25;19.30;99.90
31967;DHT22;18496;52.042;6.812;2022-10-16T11:53:46;19.40;99.90
31967;DHT22;18496;52.042;6.812;2022-10-16T11:55:52;19.40;99.90
31967;DHT22;18496;52.042;6.812;2022-10-16T11:58:16;19.50;99.90
31967;DHT22;18496;52.042;6.812;2022-10-16T12:04:41;19.60;99.90
31967;DHT22;18496;52.042;6.812;2022-10-16T12:06:51;19.60;99.90
31967;DHT22;18496;52.042;6.812;2022-10-16T12:08:57;19.60;99.90
31967;DHT22;18496;52.042;6.812;2022-10-16T12:13:28;19.70;99.90
31967;DHT22;18496;52.042;6.812;2022-10-16T12:15:32;19.70;98.90
31967;DHT22;18496;52.042;6.812;2022-10-16T12:17:36;19.70;99.10
31967;DHT22;18496;52.042;6.812;2022-10-16T12:19:40;19.70;99.50
31967;DHT22;18496;52.042;6.812;2022-10-16T12:21:44;19.80;99.90
31967;DHT22;18496;52.042;6.812;2022-10-16T12:23:50;19.80;99.70
31967;DHT22;18496;52.042;6.812;2022-10-16T12:25:55;19.90;99.90
31967;DHT22;18496;52.042;6.812;2022-10-16T12:28:06;20.00;99.50
31967;DHT22;18496;52.042;6.812;2022-10-16T12:30:15;20.00;99.20
31967;DHT22;18496;52.042;6.812;2022-10-16T12:32:28;20.00;98.50
31967;DHT22;18496;52.042;6.812;2022-10-16T12:34:39;20.10;98.00
31967;DHT22;18496;52.042;6.812;2022-10-16T12:36:44;20.10;97.40
31967;DHT22;18496;52.042;6.812;2022-10-16T12:38:49;20.10;97.50
31967;DHT22;18496;52.042;6.812;2022-10-16T12:41:00;20.10;98.00
31967;DHT22;18496;52.042;6.812;2022-10-16T12:43:11;20.10;98.10
31967;DHT22;18496;52.042;6.812;2022-10-16T12:45:25;20.10;98.60
31967;DHT22;18496;52.042;6.812;2022-10-16T12:49:36;20.20;98.50
31967;DHT22;18496;52.042;6.812;2022-10-16T12:51:40;20.20;98.00
31967;DHT22;18496;52.042;6.812;2022-10-16T12:53:44;20.30;97.50
31967;DHT22;18496;52.042;6.812;2022-10-16T12:58:16;20.40;97.00
31967;DHT22;18496;52.042;6.812;2022-10-16T13:04:38;20.50;95.80
31967;DHT22;18496;52.042;6.812;2022-10-16T13:09:25;20.50;96.60
31967;DHT22;18496;52.042;6.812;2022-10-16T13:13:57;20.60;96.50
31967;DHT22;18496;52.042;6.812;2022-10-16T13:18:13;20.60;97.00
31967;DHT22;18496;52.042;6.812;2022-10-16T13:20:30;20.60;96.90
31967;DHT22;18496;52.042;6.812;2022-10-16T13:22:40;20.60;97.10
31967;DHT22;18496;52.042;6.812;2022-10-16T13:29:01;20.70;96.60
31967;DHT22;18496;52.042;6.812;2022-10-16T13:31:05;20.70;96.30
31967;DHT22;18496;52.042;6.812;2022-10-16T13:35:36;20.80;96.20
31967;DHT22;18496;52.042;6.812;2022-10-16T13:37:40;20.90;95.80
31967;DHT22;18496;52.042;6.812;2022-10-16T13:39:43;20.90;96.10
31967;DHT22;18496;52.042;6.812;2022-10-16T13:44:12;21.00;95.50
31967;DHT22;18496;52.042;6.812;2022-10-16T13:46:18;21.00;95.10
31967;DHT22;18496;52.042;6.812;2022-10-16T13:48:21;21.10;95.10
31967;DHT22;18496;52.042;6.812;2022-10-16T13:50:25;21.10;94.90
31967;DHT22;18496;52.042;6.812;2022-10-16T13:52:29;21.10;95.20
31967;DHT22;18496;52.042;6.812;2022-10-16T13:54:32;21.10;94.90
31967;DHT22;18496;52.042;6.812;2022-10-16T13:56:38;21.10;95.40
31967;DHT22;18496;52.042;6.812;2022-10-16T13:58:42;21.10;95.10
31967;DHT22;18496;52.042;6.812;2022-10-16T14:00:56;21.20;95.00
31967;DHT22;18496;52.042;6.812;2022-10-16T14:03:04;21.30;94.90
31967;DHT22;18496;52.042;6.812;2022-10-16T14:05:08;21.30;94.20
31967;DHT22;18496;52.042;6.812;2022-10-16T14:07:14;21.40;94.10
31967;DHT22;18496;52.042;6.812;2022-10-16T14:11:25;21.50;93.00
31967;DHT22;18496;52.042;6.812;2022-10-16T14:15:32;21.80;93.20
31967;DHT22;18496;52.042;6.812;2022-10-16T14:17:37;21.80;93.10
31967;DHT22;18496;52.042;6.812;2022-10-16T14:19:47;21.90;92.70
31967;DHT22;18496;52.042;6.812;2022-10-16T14:21:52;21.90;92.30
31967;DHT22;18496;52.042;6.812;2022-10-16T14:23:56;21.90;92.40
31967;DHT22;18496;52.042;6.812;2022-10-16T14:26:40;22.00;92.40
31967;DHT22;18496;52.042;6.812;2022-10-16T14:28:29;22.00;92.30
31967;DHT22;18496;52.042;6.812;2022-10-16T14:30:34;22.00;92.10
31967;DHT22;18496;52.042;6.812;2022-10-16T14:32:39;22.00;92.10
31967;DHT22;18496;52.042;6.812;2022-10-16T14:34:52;22.10;92.00
31967;DHT22;18496;52.042;6.812;2022-10-16T14:36:56;22.10;92.50
31967;DHT22;18496;52.042;6.812;2022-10-16T14:39:04;22.00;92.20
31967;DHT22;18496;52.042;6.812;2022-10-16T14:41:08;22.00;92.00
31967;DHT22;18496;52.042;6.812;2022-10-16T14:43:18;22.10;92.30
31967;DHT22;18496;52.042;6.812;2022-10-16T14:45:24;22.20;92.40
31967;DHT22;18496;52.042;6.812;2022-10-16T14:47:28;22.20;92.00
31967;DHT22;18496;52.042;6.812;2022-10-16T14:49:31;22.30;91.40
31967;DHT22;18496;52.042;6.812;2022-10-16T14:51:36;22.40;91.50